sensor_id;sensor_type;location;lat;lon;timestamp;temperature;humidity
51637;DHT22;37713;53.254;6.460;2022-09-14T00:01:52;13.20;99.90
51637;DHT22;37713;53.254;6.460;2022-09-14T00:04:19;13.20;99.90
51637;DHT22;37713;53.254;6.460;2022-09-14T00:06:45;13.20;99.90
51637;DHT22;37713;53.254;6.460;2022-09-14T00:09:14;13.20;99.90
51637;DHT22;37713;53.254;6.460;2022-09-14T00:11:40;13.20;99.90
51637;DHT22;37713;53.254;6.460;2022-09-14T00:14:06;13.10;99.90
51637;DHT22;37713;53.254;6.460;2022-09-14T00:16:35;13.10;99.90
51637;DHT22;37713;53.254;6.460;2022-09-14T00:19:04;13.10;99.90
51637;DHT22;37713;53.254;6.460;2022-09-14T00:21:36;13.10;99.90
51637;DHT22;37713;53.254;6.460;2022-09-14T00:24:02;13.00;99.90
51637;DHT22;37713;53.254;6.460;2022-09-14T00:26:29;13.00;99.90
51637;DHT22;37713;53.254;6.460;2022-09-14T00:28:57;12.90;99.90
51637;DHT22;37713;53.254;6.460;2022-09-14T00:31:24;12.90;99.90
51637;DHT22;37713;53.254;6.460;2022-09-14T00:33:51;12.90;99.90
51637;DHT22;37713;53.254;6.460;2022-09-14T00:36:20;12.90;99.90
51637;DHT22;37713;53.254;6.460;2022-09-14T00:38:46;12.90;99.90
51637;DHT22;37713;53.254;6.460;2022-09-14T00:41:17;12.80;99.90
51637;DHT22;37713;53.254;6.460;2022-09-14T00:46:42;12.80;99.90
51637;DHT22;37713;53.254;6.460;2022-09-14T00:49:18;12.80;99.90
51637;DHT22;37713;53.254;6.460;2022-09-14T00:54:18;12.70;99.90
51637;DHT22;37713;53.254;6.460;2022-09-14T00:56:46;12.60;99.90
51637;DHT22;37713;53.254;6.460;2022-09-14T00:59:16;12.60;99.90
51637;DHT22;37713;53.254;6.460;2022-09-14T01:01:42;12.60;99.90
51637;DHT22;37713;53.254;6.460;2022-09-14T01:04:09;12.60;99.90
51637;DHT22;37713;53.254;6.460;2022-09-14T01:06:40;12.70;99.90
51637;DHT22;37713;53.254;6.460;2022-09-14T01:12:01;12.70;99.90
51637;DHT22;37713;53.254;6.460;2022-09-14T01:15:02;12.70;99.90
51637;DHT22;37713;53.254;6.460;2022-09-14T01:28:52;13.00;99.90
51637;DHT22;37713;53.254;6.460;2022-09-14T01:31:48;13.10;99.90
51637;DHT22;37713;53.254;6.460;2022-09-14T01:34:25;13.10;99.90
51637;DHT22;37713;53.254;6.460;2022-09-14T01:37:02;13.30;99.90
51637;DHT22;37713;53.254;6.460;2022-09-14T01:39:31;13.30;99.90
51637;DHT22;37713;53.254;6.460;2022-09-14T01:42:00;13.30;99.90
51637;DHT22;37713;53.254;6.460;2022-09-14T01:44:36;13.30;99.90
51637;DHT22;37713;53.254;6.460;2022-09-14T01:47:12;13.40;99.90
51637;DHT22;37713;53.254;6.460;2022-09-14T01:49:45;13.50;99.90
51637;DHT22;37713;53.254;6.460;2022-09-14T01:52:19;13.50;99.90
51637;DHT22;37713;53.254;6.460;2022-09-14T01:55:02;13.50;99.90
51637;DHT22;37713;53.254;6.460;2022-09-14T01:57:38;13.50;99.90
51637;DHT22;37713;53.254;6.460;2022-09-14T02:00:11;13.60;99.90
51637;DHT22;37713;53.254;6.460;2022-09-14T02:02:46;13.70;99.90
51637;DHT22;37713;53.254;6.460;2022-09-14T02:05:39;13.60;99.90
51637;DHT22;37713;53.254;6.460;2022-09-14T02:08:07;13.60;99.90
51637;DHT22;37713;53.254;6.460;2022-09-14T02:10:33;13.70;99.90
51637;DHT22;37713;53.254;6.460;2022-09-14T02:13:00;13.70;99.90
51637;DHT22;37713;53.254;6.460;2022-09-14T02:15:26;13.60;99.90
51637;DHT22;37713;53.254;6.460;2022-09-14T02:17:53;13.70;99.90
51637;DHT22;37713;53.254;6.460;2022-09-14T02:20:47;13.70;99.90
51637;DHT22;37713;53.254;6.460;2022-09-14T02:23:16;13.70;99.90
51637;DHT22;37713;53.254;6.460;2022-09-14T02:25:43;13.70;99.90
51637;DHT22;37713;53.254;6.460;2022-09-14T02:28:09;13.70;99.90
51637;DHT22;37713;53.254;6.460;2022-09-14T02:30:48;13.70;99.90
51637;DHT22;37713;53.254;6.460;2022-09-14T02:33:34;13.70;99.90
51637;DHT22;37713;53.254;6.460;2022-09-14T02:36:06;13.70;99.90
51637;DHT22;37713;53.254;6.460;2022-09-14T02:38:41;13.60;99.90
51637;DHT22;37713;53.254;6.460;2022-09-14T02:41:13;13.60;99.90
51637;DHT22;37713;53.254;6.460;2022-09-14T02:43:55;13.70;99.90
51637;DHT22;37713;53.254;6.460;2022-09-14T02:52:30;13.70;99.90
51637;DHT22;37713;53.254;6.460;2022-09-14T02:55:08;13.70;99.90
51637;DHT22;37713;53.254;6.460;2022-09-14T03:00:24;13.60;99.90
51637;DHT22;37713;53.254;6.460;2022-09-14T03:02:49;13.60;99.90
51637;DHT22;37713;53.254;6.460;2022-09-14T03:05:16;13.70;99.90
51637;DHT22;37713;53.254;6.460;2022-09-14T03:07:41;13.70;99.90
51637;DHT22;37713;53.254;6.460;2022-09-14T03:10:07;13.70;99.90
51637;DHT22;37713;53.254;6.460;2022-09-14T03:12:33;13.70;99.90
51637;DHT22;37713;53.254;6.460;2022-09-14T03:14:59;13.70;99.90
51637;DHT22;37713;53.254;6.460;2022-09-14T03:17:25;13.70;99.90
51637;DHT22;37713;53.254;6.460;2022-09-14T03:19:51;13.70;99.90
51637;DHT22;37713;53.254;6.460;2022-09-14T03:22:17;13.70;99.90
51637;DHT22;37713;53.254;6.460;2022-09-14T03:24:43;13.80;99.90
51637;DHT22;37713;53.254;6.460;2022-09-14T03:27:09;13.70;99.90
51637;DHT22;37713;53.254;6.460;2022-09-14T03:29:35;13.70;99.90
51637;DHT22;37713;53.254;6.460;2022-09-14T03:32:01;13.70;99.90
51637;DHT22;37713;53.254;6.460;2022-09-14T03:34:27;13.70;99.90
51637;DHT22;37713;53.254;6.460;2022-09-14T03:36:52;13.70;99.90
51637;DHT22;37713;53.254;6.460;2022-09-14T03:39:18;13.70;99.90
51637;DHT22;37713;53.254;6.460;2022-09-14T03:41:44;13.80;99.90
51637;DHT22;37713;53.254;6.460;2022-09-14T03:44:10;13.80;99.90
51637;DHT22;37713;53.254;6.460;2022-09-14T03:46:36;13.80;99.90
51637;DHT22;37713;53.254;6.460;2022-09-14T03:49:02;13.80;99.90
51637;DHT22;37713;53.254;6.460;2022-09-14T03:51:28;13.80;99.90
51637;DHT22;37713;53.254;6.460;2022-09-14T03:53:54;13.80;99.90
51637;DHT22;37713;53.254;6.460;2022-09-14T03:56:21;13.80;99.90
51637;DHT22;37713;53.254;6.460;2022-09-14T03:58:48;13.80;99.90
51637;DHT22;37713;53.254;6.460;2022-09-14T04:01:18;13.80;99.90
51637;DHT22;37713;53.254;6.460;2022-09-14T04:03:45;13.80;99.90
51637;DHT22;37713;53.254;6.460;2022-09-14T04:06:11;13.90;99.90
51637;DHT22;37713;53.254;6.460;2022-09-14T04:08:39;13.80;99.90
51637;DHT22;37713;53.254;6.460;2022-09-14T04:11:16;13.90;99.90
51637;DHT22;37713;53.254;6.460;2022-09-14T04:13:42;13.80;99.90
51637;DHT22;37713;53.254;6.460;2022-09-14T04:16:09;13.90;99.90
51637;DHT22;37713;53.254;6.460;2022-09-14T04:18:35;13.90;99.90
51637;DHT22;37713;53.254;6.460;2022-09-14T04:21:04;14.00;99.90
51637;DHT22;37713;53.254;6.460;2022-09-14T04:23:31;13.90;99.90
51637;DHT22;37713;53.254;6.460;2022-09-14T04:25:57;13.90;99.90
51637;DHT22;37713;53.254;6.460;2022-09-14T04:28:24;13.90;99.90
51637;DHT22;37713;53.254;6.460;2022-09-14T04:30:57;14.00;99.90
51637;DHT22;37713;53.254;6.460;2022-09-14T04:33:24;13.90;99.90
51637;DHT22;37713;53.254;6.460;2022-09-14T04:36:02;13.90;99.90
51637;DHT22;37713;53.254;6.460;2022-09-14T04:38:29;14.00;99.90
51637;DHT22;37713;53.254;6.460;2022-09-14T04:40:56;13.90;99.90
51637;DHT22;37713;53.254;6.460;2022-09-14T04:43:25;13.90;99.90
51637;DHT22;37713;53.254;6.460;2022-09-14T04:45:52;13.90;99.90
51637;DHT22;37713;53.254;6.460;2022-09-14T04:48:19;13.90;99.90
51637;DHT22;37713;53.254;6.460;2022-09-14T04:50:44;13.90;99.90
51637;DHT22;37713;53.254;6.460;2022-09-14T04:53:10;13.90;99.90
51637;DHT22;37713;53.254;6.460;2022-09-14T04:55:37;13.90;99.90
51637;DHT22;37713;53.254;6.460;2022-09-14T04:58:04;14.00;99.90
51637;DHT22;37713;53.254;6.460;2022-09-14T05:00:33;14.00;99.90
51637;DHT22;37713;53.254;6.460;2022-09-14T05:03:00;13.90;99.90
51637;DHT22;37713;53.254;6.460;2022-09-14T05:05:26;13.90;99.90
51637;DHT22;37713;53.254;6.460;2022-09-14T05:07:52;13.80;99.90
51637;DHT22;37713;53.254;6.460;2022-09-14T05:10:17;13.80;99.90
51637;DHT22;37713;53.254;6.460;2022-09-14T05:12:43;13.70;99.90
51637;DHT22;37713;53.254;6.460;2022-09-14T05:15:09;13.80;99.90
51637;DHT22;37713;53.254;6.460;2022-09-14T05:17:35;13.80;99.90
51637;DHT22;37713;53.254;6.460;2022-09-14T05:20:01;13.60;99.90
51637;DHT22;37713;53.254;6.460;2022-09-14T05:22:28;13.70;99.90
51637;DHT22;37713;53.254;6.460;2022-09-14T05:24:53;13.80;99.90
51637;DHT22;37713;53.254;6.460;2022-09-14T05:27:19;13.80;99.90
51637;DHT22;37713;53.254;6.460;2022-09-14T05:29:45;13.80;99.90
51637;DHT22;37713;53.254;6.460;2022-09-14T05:32:11;13.70;99.90
51637;DHT22;37713;53.254;6.460;2022-09-14T05:34:37;13.70;99.90
51637;DHT22;37713;53.254;6.460;2022-09-14T05:37:03;13.80;99.90
51637;DHT22;37713;53.254;6.460;2022-09-14T05:39:29;13.70;99.90
51637;DHT22;37713;53.254;6.460;2022-09-14T05:41:56;13.90;99.90
51637;DHT22;37713;53.254;6.460;2022-09-14T05:44:22;13.80;99.90
51637;DHT22;37713;53.254;6.460;2022-09-14T05:46:47;13.90;99.90
51637;DHT22;37713;53.254;6.460;2022-09-14T05:49:15;13.90;99.90
51637;DHT22;37713;53.254;6.460;2022-09-14T05:51:43;14.00;99.90
51637;DHT22;37713;53.254;6.460;2022-09-14T05:54:09;13.90;99.90
51637;DHT22;37713;53.254;6.460;2022-09-14T05:56:36;14.00;99.90
51637;DHT22;37713;53.254;6.460;2022-09-14T05:59:02;14.00;99.90
51637;DHT22;37713;53.254;6.460;2022-09-14T06:01:30;14.10;99.90
51637;DHT22;37713;53.254;6.460;2022-09-14T06:03:59;14.10;99.90
51637;DHT22;37713;53.254;6.460;2022-09-14T06:06:27;14.20;99.90
51637;DHT22;37713;53.254;6.460;2022-09-14T06:08:53;14.20;99.90
51637;DHT22;37713;53.254;6.460;2022-09-14T06:11:22;14.20;99.90
51637;DHT22;37713;53.254;6.460;2022-09-14T06:13:48;14.20;99.90
51637;DHT22;37713;53.254;6.460;2022-09-14T06:16:16;14.30;99.90
51637;DHT22;37713;53.254;6.460;2022-09-14T06:18:44;14.40;99.90
51637;DHT22;37713;53.254;6.460;2022-09-14T06:21:11;14.50;99.90
51637;DHT22;37713;53.254;6.460;2022-09-14T06:23:40;14.50;99.90
51637;DHT22;37713;53.254;6.460;2022-09-14T06:26:06;14.60;99.90
51637;DHT22;37713;53.254;6.460;2022-09-14T06:28:33;14.60;99.90
51637;DHT22;37713;53.254;6.460;2022-09-14T06:30:59;14.70;99.90
51637;DHT22;37713;53.254;6.460;2022-09-14T06:33:25;14.80;99.90
51637;DHT22;37713;53.254;6.460;2022-09-14T06:35:59;14.80;99.90
51637;DHT22;37713;53.254;6.460;2022-09-14T06:38:27;14.90;99.90
51637;DHT22;37713;53.254;6.460;2022-09-14T06:40:56;14.90;99.90
51637;DHT22;37713;53.254;6.460;2022-09-14T06:43:24;15.10;99.90
51637;DHT22;37713;53.254;6.460;2022-09-14T06:45:57;15.10;99.90
51637;DHT22;37713;53.254;6.460;2022-09-14T06:48:23;15.20;99.90
51637;DHT22;37713;53.254;6.460;2022-09-14T06:50:49;15.30;99.90
51637;DHT22;37713;53.254;6.460;2022-09-14T06:53:16;15.30;99.90
51637;DHT22;37713;53.254;6.460;2022-09-14T06:55:42;15.40;99.90
51637;DHT22;37713;53.254;6.460;2022-09-14T06:58:10;15.50;99.90
51637;DHT22;37713;53.254;6.460;2022-09-14T07:00:36;15.60;99.90
51637;DHT22;37713;53.254;6.460;2022-09-14T07:03:02;15.60;99.90
51637;DHT22;37713;53.254;6.460;2022-09-14T07:05:29;15.70;99.90
51637;DHT22;37713;53.254;6.460;2022-09-14T07:07:56;15.80;99.90
51637;DHT22;37713;53.254;6.460;2022-09-14T07:10:22;15.80;99.90
51637;DHT22;37713;53.254;6.460;2022-09-14T07:12:48;15.80;99.90
51637;DHT22;37713;53.254;6.460;2022-09-14T07:15:14;15.90;99.90
51637;DHT22;37713;53.254;6.460;2022-09-14T07:17:43;16.00;99.90
51637;DHT22;37713;53.254;6.460;2022-09-14T07:20:09;16.10;99.90
51637;DHT22;37713;53.254;6.460;2022-09-14T07:22:35;16.10;99.90
51637;DHT22;37713;53.254;6.460;2022-09-14T07:25:02;16.10;99.90
51637;DHT22;37713;53.254;6.460;2022-09-14T07:27:27;16.20;99.90
51637;DHT22;37713;53.254;6.460;2022-09-14T07:29:53;16.20;99.90
51637;DHT22;37713;53.254;6.460;2022-09-14T07:32:20;16.30;99.90
51637;DHT22;37713;53.254;6.460;2022-09-14T07:34:46;16.40;99.90
51637;DHT22;37713;53.254;6.460;2022-09-14T07:37:11;16.40;99.90
51637;DHT22;37713;53.254;6.460;2022-09-14T07:39:37;16.50;99.90
51637;DHT22;37713;53.254;6.460;2022-09-14T07:42:03;16.60;99.90
51637;DHT22;37713;53.254;6.460;2022-09-14T07:44:29;16.60;99.90
51637;DHT22;37713;53.254;6.460;2022-09-14T07:46:55;16.60;99.90
51637;DHT22;37713;53.254;6.460;2022-09-14T07:49:20;16.70;99.90
51637;DHT22;37713;53.254;6.460;2022-09-14T07:51:47;16.80;99.90
51637;DHT22;37713;53.254;6.460;2022-09-14T07:54:15;16.80;99.90
51637;DHT22;37713;53.254;6.460;2022-09-14T07:56:41;16.90;99.90
51637;DHT22;37713;53.254;6.460;2022-09-14T07:59:12;17.00;99.90
51637;DHT22;37713;53.254;6.460;2022-09-14T08:01:39;17.10;99.90
51637;DHT22;37713;53.254;6.460;2022-09-14T08:04:05;17.30;99.90
51637;DHT22;37713;53.254;6.460;2022-09-14T08:06:32;17.30;99.90
51637;DHT22;37713;53.254;6.460;2022-09-14T08:08:59;17.40;99.90
51637;DHT22;37713;53.254;6.460;2022-09-14T08:11:25;17.50;99.90
51637;DHT22;37713;53.254;6.460;2022-09-14T08:13:57;17.60;99.90
51637;DHT22;37713;53.254;6.460;2022-09-14T08:16:24;17.70;99.90
51637;DHT22;37713;53.254;6.460;2022-09-14T08:18:55;17.80;99.90
51637;DHT22;37713;53.254;6.460;2022-09-14T08:21:22;17.90;99.90
51637;DHT22;37713;53.254;6.460;2022-09-14T08:23:48;17.90;99.90
51637;DHT22;37713;53.254;6.460;2022-09-14T08:26:17;17.90;99.90
51637;DHT22;37713;53.254;6.460;2022-09-14T08:28:43;17.90;99.90
51637;DHT22;37713;53.254;6.460;2022-09-14T08:31:18;18.20;99.90
51637;DHT22;37713;53.254;6.460;2022-09-14T08:33:56;18.20;99.90
51637;DHT22;37713;53.254;6.460;2022-09-14T08:36:24;18.30;99.90
51637;DHT22;37713;53.254;6.460;2022-09-14T08:38:50;18.70;99.90
51637;DHT22;37713;53.254;6.460;2022-09-14T08:49:45;19.50;99.90
51637;DHT22;37713;53.254;6.460;2022-09-14T08:54:46;19.60;99.90
51637;DHT22;37713;53.254;6.460;2022-09-14T09:00:13;19.50;99.90
51637;DHT22;37713;53.254;6.460;2022-09-14T09:10:52;19.10;99.90
51637;DHT22;37713;53.254;6.460;2022-09-14T09:13:22;19.00;99.90
51637;DHT22;37713;53.254;6.460;2022-09-14T09:15:56;18.90;99.90
51637;DHT22;37713;53.254;6.460;2022-09-14T09:18:46;18.90;99.90
51637;DHT22;37713;53.254;6.460;2022-09-14T09:21:21;18.90;99.90
51637;DHT22;37713;53.254;6.460;2022-09-14T09:23:47;18.90;99.90
51637;DHT22;37713;53.254;6.460;2022-09-14T09:26:30;18.80;99.90
51637;DHT22;37713;53.254;6.460;2022-09-14T09:28:59;18.80;99.90
51637;DHT22;37713;53.254;6.460;2022-09-14T09:31:43;18.70;99.90
51637;DHT22;37713;53.254;6.460;2022-09-14T09:34:16;18.60;99.90
51637;DHT22;37713;53.254;6.460;2022-09-14T09:36:47;18.50;99.90
51637;DHT22;37713;53.254;6.460;2022-09-14T09:39:14;18.50;99.90
51637;DHT22;37713;53.254;6.460;2022-09-14T09:41:50;18.50;99.90
51637;DHT22;37713;53.254;6.460;2022-09-14T09:44:17;18.60;99.90
51637;DHT22;37713;53.254;6.460;2022-09-14T09:46:54;18.70;99.90
51637;DHT22;37713;53.254;6.460;2022-09-14T09:49:30;18.80;99.90
51637;DHT22;37713;53.254;6.460;2022-09-14T09:52:15;19.00;99.90
51637;DHT22;37713;53.254;6.460;2022-09-14T09:54:48;19.00;99.90
51637;DHT22;37713;53.254;6.460;2022-09-14T09:57:35;19.10;99.90
51637;DHT22;37713;53.254;6.460;2022-09-14T10:02:39;19.50;99.90
51637;DHT22;37713;53.254;6.460;2022-09-14T10:07:36;19.70;99.90
51637;DHT22;37713;53.254;6.460;2022-09-14T10:10:05;19.70;99.90
51637;DHT22;37713;53.254;6.460;2022-09-14T10:12:32;19.80;99.90
51637;DHT22;37713;53.254;6.460;2022-09-14T10:20:29;19.90;99.90
51637;DHT22;37713;53.254;6.460;2022-09-14T10:22:55;19.90;99.90
51637;DHT22;37713;53.254;6.460;2022-09-14T10:25:23;19.90;99.90
51637;DHT22;37713;53.254;6.460;2022-09-14T10:27:58;19.90;99.90
51637;DHT22;37713;53.254;6.460;2022-09-14T10:30:30;19.80;99.90
51637;DHT22;37713;53.254;6.460;2022-09-14T10:33:00;19.80;99.90
51637;DHT22;37713;53.254;6.460;2022-09-14T10:38:52;19.60;99.90
51637;DHT22;37713;53.254;6.460;2022-09-14T10:43:55;19.50;99.90
51637;DHT22;37713;53.254;6.460;2022-09-14T10:46:29;19.50;99.90
51637;DHT22;37713;53.254;6.460;2022-09-14T10:49:39;19.50;99.90
51637;DHT22;37713;53.254;6.460;2022-09-14T10:51:59;19.40;99.90
51637;DHT22;37713;53.254;6.460;2022-09-14T10:54:50;19.30;99.90
51637;DHT22;37713;53.254;6.460;2022-09-14T11:00:04;19.20;99.90
51637;DHT22;37713;53.254;6.460;2022-09-14T11:05:33;19.40;99.90
51637;DHT22;37713;53.254;6.460;2022-09-14T11:27:38;20.40;99.90
51637;DHT22;37713;53.254;6.460;2022-09-14T11:30:13;20.30;99.90
51637;DHT22;37713;53.254;6.460;2022-09-14T11:33:00;20.20;99.90
51637;DHT22;37713;53.254;6.460;2022-09-14T11:35:38;20.10;99.90
51637;DHT22;37713;53.254;6.460;2022-09-14T11:38:17;20.10;99.90
51637;DHT22;37713;53.254;6.460;2022-09-14T11:41:19;20.20;99.90
51637;DHT22;37713;53.254;6.460;2022-09-14T11:43:57;20.30;99.90
51637;DHT22;37713;53.254;6.460;2022-09-14T11:46:31;20.30;99.90
51637;DHT22;37713;53.254;6.460;2022-09-14T11:52:05;20.40;99.90
51637;DHT22;37713;53.254;6.460;2022-09-14T11:54:33;20.40;99.90
51637;DHT22;37713;53.254;6.460;2022-09-14T11:57:01;20.40;99.90
51637;DHT22;37713;53.254;6.460;2022-09-14T11:59:35;20.40;99.90
51637;DHT22;37713;53.254;6.460;2022-09-14T12:12:44;21.00;99.90
51637;DHT22;37713;53.254;6.460;2022-09-14T12:17:44;21.20;99.90
51637;DHT22;37713;53.254;6.460;2022-09-14T12:23:20;21.10;99.90
51637;DHT22;37713;53.254;6.460;2022-09-14T12:26:11;21.20;99.90
51637;DHT22;37713;53.254;6.460;2022-09-14T12:28:49;21.00;99.90
51637;DHT22;37713;53.254;6.460;2022-09-14T12:31:39;21.00;99.90
51637;DHT22;37713;53.254;6.460;2022-09-14T12:34:24;21.00;99.90
51637;DHT22;37713;53.254;6.460;2022-09-14T12:39:24;21.10;99.90
51637;DHT22;37713;53.254;6.460;2022-09-14T12:49:54;20.60;99.90
51637;DHT22;37713;53.254;6.460;2022-09-14T12:52:46;20.40;99.90
51637;DHT22;37713;53.254;6.460;2022-09-14T12:55:34;20.30;99.90
51637;DHT22;37713;53.254;6.460;2022-09-14T13:03:47;19.70;99.90
51637;DHT22;37713;53.254;6.460;2022-09-14T13:06:15;19.70;99.90
51637;DHT22;37713;53.254;6.460;2022-09-14T13:08:53;19.70;99.90
51637;DHT22;37713;53.254;6.460;2022-09-14T13:11:36;19.60;99.90
51637;DHT22;37713;53.254;6.460;2022-09-14T13:14:03;19.50;99.90
51637;DHT22;37713;53.254;6.460;2022-09-14T13:16:43;19.60;99.90
51637;DHT22;37713;53.254;6.460;2022-09-14T13:19:27;19.60;99.90
51637;DHT22;37713;53.254;6.460;2022-09-14T13:21:55;19.60;99.90
51637;DHT22;37713;53.254;6.460;2022-09-14T13:24:28;19.60;99.90
51637;DHT22;37713;53.254;6.460;2022-09-14T13:26:58;19.50;99.90
51637;DHT22;37713;53.254;6.460;2022-09-14T13:29:26;19.60;99.90
51637;DHT22;37713;53.254;6.460;2022-09-14T13:31:53;19.50;99.90
51637;DHT22;37713;53.254;6.460;2022-09-14T13:34:33;19.50;99.90
51637;DHT22;37713;53.254;6.460;2022-09-14T13:37:01;19.60;99.90
51637;DHT22;37713;53.254;6.460;2022-09-14T13:39:36;19.80;99.90
51637;DHT22;37713;53.254;6.460;2022-09-14T13:42:03;19.90;99.90
51637;DHT22;37713;53.254;6.460;2022-09-14T13:44:35;19.90;99.90
51637;DHT22;37713;53.254;6.460;2022-09-14T13:47:06;19.80;99.90
51637;DHT22;37713;53.254;6.460;2022-09-14T13:49:34;19.90;99.90
51637;DHT22;37713;53.254;6.460;2022-09-14T13:52:40;19.80;99.90
51637;DHT22;37713;53.254;6.460;2022-09-14T14:00:45;20.00;99.90
51637;DHT22;37713;53.254;6.460;2022-09-14T14:05:48;19.90;99.90
51637;DHT22;37713;53.254;6.460;2022-09-14T14:08:32;19.90;99.90
51637;DHT22;37713;53.254;6.460;2022-09-14T14:11:02;19.90;99.90
51637;DHT22;37713;53.254;6.460;2022-09-14T14:13:31;19.80;99.90
51637;DHT22;37713;53.254;6.460;2022-09-14T14:16:18;19.80;99.90
51637;DHT22;37713;53.254;6.460;2022-09-14T14:18:52;19.90;99.90
51637;DHT22;37713;53.254;6.460;2022-09-14T14:23:51;19.70;99.90
51637;DHT22;37713;53.254;6.460;2022-09-14T14:26:25;19.70;99.90
51637;DHT22;37713;53.254;6.460;2022-09-14T14:28:52;19.70;99.90
51637;DHT22;37713;53.254;6.460;2022-09-14T14:31:20;19.80;99.90
51637;DHT22;37713;53.254;6.460;2022-09-14T14:33:49;19.80;99.90
51637;DHT22;37713;53.254;6.460;2022-09-14T14:36:16;19.90;99.90
51637;DHT22;37713;53.254;6.460;2022-09-14T14:38:45;19.90;99.90
51637;DHT22;37713;53.254;6.460;2022-09-14T14:41:15;19.90;99.90
51637;DHT22;37713;53.254;6.460;2022-09-14T14:43:43;19.90;99.90
51637;DHT22;37713;53.254;6.460;2022-09-14T14:46:12;19.90;99.90
51637;DHT22;37713;53.254;6.460;2022-09-14T14:48:39;19.90;99.90
51637;DHT22;37713;53.254;6.460;2022-09-14T14:51:08;20.00;99.90
51637;DHT22;37713;53.254;6.460;2022-09-14T14:53:36;20.00;99.90
51637;DHT22;37713;53.254;6.460;2022-09-14T14:56:02;19.90;99.90
51637;DHT22;37713;53.254;6.460;2022-09-14T14:58:28;19.90;99.90
51637;DHT22;37713;53.254;6.460;2022-09-14T15:00:54;19.80;99.90
51637;DHT22;37713;53.254;6.460;2022-09-14T15:03:21;19.80;99.90
51637;DHT22;37713;53.254;6.460;2022-09-14T15:05:47;19.80;99.90
51637;DHT22;37713;53.254;6.460;2022-09-14T15:08:16;19.70;99.90
51637;DHT22;37713;53.254;6.460;2022-09-14T15:10:42;19.60;99.90
51637;DHT22;37713;53.254;6.460;2022-09-14T15:13:09;19.50;99.90
51637;DHT22;37713;53.254;6.460;2022-09-14T15:15:38;19.50;99.90
51637;DHT22;37713;53.254;6.460;2022-09-14T15:18:06;19.40;99.90
51637;DHT22;37713;53.254;6.460;2022-09-14T15:20:32;19.40;99.90
51637;DHT22;37713;53.254;6.460;2022-09-14T15:22:58;19.30;99.90
51637;DHT22;37713;53.254;6.460;2022-09-14T15:25:23;19.30;99.90
51637;DHT22;37713;53.254;6.460;2022-09-14T15:27:49;19.40;99.90
51637;DHT22;37713;53.254;6.460;2022-09-14T15:30:15;19.40;99.90
51637;DHT22;37713;53.254;6.460;2022-09-14T15:32:41;19.30;99.90
51637;DHT22;37713;53.254;6.460;2022-09-14T15:35:11;19.30;99.90
51637;DHT22;37713;53.254;6.460;2022-09-14T15:37:38;19.30;99.90
51637;DHT22;37713;53.254;6.460;2022-09-14T15:40:04;19.20;99.90
51637;DHT22;37713;53.254;6.460;2022-09-14T15:42:31;19.20;99.90
51637;DHT22;37713;53.254;6.460;2022-09-14T15:44:57;19.20;99.90
51637;DHT22;37713;53.254;6.460;2022-09-14T15:47:23;19.30;99.90
51637;DHT22;37713;53.254;6.460;2022-09-14T15:49:52;19.30;99.90
51637;DHT22;37713;53.254;6.460;2022-09-14T15:52:18;19.30;99.90
51637;DHT22;37713;53.254;6.460;2022-09-14T15:54:44;19.30;99.90
51637;DHT22;37713;53.254;6.460;2022-09-14T15:57:10;19.30;99.90
51637;DHT22;37713;53.254;6.460;2022-09-14T15:59:37;19.20;99.90
51637;DHT22;37713;53.254;6.460;2022-09-14T16:02:04;19.20;99.90
51637;DHT22;37713;53.254;6.460;2022-09-14T16:04:35;19.20;99.90
51637;DHT22;37713;53.254;6.460;2022-09-14T16:07:01;19.20;99.90
51637;DHT22;37713;53.254;6.460;2022-09-14T16:09:30;19.20;99.90
51637;DHT22;37713;53.254;6.460;2022-09-14T16:11:56;19.20;99.90
51637;DHT22;37713;53.254;6.460;2022-09-14T16:14:22;19.10;99.90
51637;DHT22;37713;53.254;6.460;2022-09-14T16:16:48;19.00;99.90
51637;DHT22;37713;53.254;6.460;2022-09-14T16:19:14;19.00;99.90
51637;DHT22;37713;53.254;6.460;2022-09-14T16:21:41;18.90;99.90
51637;DHT22;37713;53.254;6.460;2022-09-14T16:24:11;18.80;99.90
51637;DHT22;37713;53.254;6.460;2022-09-14T16:26:38;18.80;99.90
51637;DHT22;37713;53.254;6.460;2022-09-14T16:29:05;18.60;99.90
51637;DHT22;37713;53.254;6.460;2022-09-14T16:31:35;18.50;99.90
51637;DHT22;37713;53.254;6.460;2022-09-14T16:34:03;18.50;99.90
51637;DHT22;37713;53.254;6.460;2022-09-14T16:36:33;18.40;99.90
51637;DHT22;37713;53.254;6.460;2022-09-14T16:39:00;18.40;99.90
51637;DHT22;37713;53.254;6.460;2022-09-14T16:41:27;18.30;99.90
51637;DHT22;37713;53.254;6.460;2022-09-14T16:43:59;18.20;99.90
51637;DHT22;37713;53.254;6.460;2022-09-14T16:46:26;18.20;99.90
51637;DHT22;37713;53.254;6.460;2022-09-14T16:48:53;18.10;99.90
51637;DHT22;37713;53.254;6.460;2022-09-14T16:51:21;18.00;99.90
51637;DHT22;37713;53.254;6.460;2022-09-14T16:53:49;17.90;99.90
51637;DHT22;37713;53.254;6.460;2022-09-14T16:56:18;17.80;99.90
51637;DHT22;37713;53.254;6.460;2022-09-14T16:58:44;17.70;99.90
51637;DHT22;37713;53.254;6.460;2022-09-14T17:01:28;17.60;99.90
51637;DHT22;37713;53.254;6.460;2022-09-14T17:03:57;17.60;99.90
51637;DHT22;37713;53.254;6.460;2022-09-14T17:06:29;17.50;99.90
51637;DHT22;37713;53.254;6.460;2022-09-14T17:08:58;17.50;99.90
51637;DHT22;37713;53.254;6.460;2022-09-14T17:11:26;17.50;99.90
51637;DHT22;37713;53.254;6.460;2022-09-14T17:13:52;17.50;99.90
51637;DHT22;37713;53.254;6.460;2022-09-14T17:16:19;17.50;99.90
51637;DHT22;37713;53.254;6.460;2022-09-14T17:18:47;17.40;99.90
51637;DHT22;37713;53.254;6.460;2022-09-14T17:21:20;17.40;99.90
51637;DHT22;37713;53.254;6.460;2022-09-14T17:23:47;17.40;99.90
51637;DHT22;37713;53.254;6.460;2022-09-14T17:26:14;17.30;99.90
51637;DHT22;37713;53.254;6.460;2022-09-14T17:28:43;17.30;99.90
51637;DHT22;37713;53.254;6.460;2022-09-14T17:31:12;17.20;99.90
51637;DHT22;37713;53.254;6.460;2022-09-14T17:33:38;17.20;99.90
51637;DHT22;37713;53.254;6.460;2022-09-14T17:36:05;17.10;99.90
51637;DHT22;37713;53.254;6.460;2022-09-14T17:38:37;17.00;99.90
51637;DHT22;37713;53.254;6.460;2022-09-14T17:41:12;17.00;99.90
51637;DHT22;37713;53.254;6.460;2022-09-14T17:43:38;16.90;99.90
51637;DHT22;37713;53.254;6.460;2022-09-14T17:46:06;16.80;99.90
51637;DHT22;37713;53.254;6.460;2022-09-14T17:48:34;16.70;99.90
51637;DHT22;37713;53.254;6.460;2022-09-14T17:51:08;16.60;99.90
51637;DHT22;37713;53.254;6.460;2022-09-14T17:53:39;16.50;99.90
51637;DHT22;37713;53.254;6.460;2022-09-14T17:56:07;16.40;99.90
51637;DHT22;37713;53.254;6.460;2022-09-14T17:58:34;16.30;99.90
51637;DHT22;37713;53.254;6.460;2022-09-14T18:01:08;16.20;99.90
51637;DHT22;37713;53.254;6.460;2022-09-14T18:03:35;16.10;99.90
51637;DHT22;37713;53.254;6.460;2022-09-14T18:06:03;16.00;99.90